createdAt,value
2018-03-03T00:01:22.823Z,-8.60
2018-03-03T00:03:51.119Z,-8.60
2018-03-03T00:06:19.375Z,-8.60
2018-03-03T00:08:47.648Z,-8.80
2018-03-03T00:11:15.903Z,-8.50
2018-03-03T00:13:44.935Z,-8.60
2018-03-03T00:16:13.192Z,-8.70
2018-03-03T00:18:42.227Z,-8.60
2018-03-03T00:21:10.484Z,-8.60
2018-03-03T00:23:39.519Z,-8.80
2018-03-03T00:26:07.775Z,-8.60
2018-03-03T00:28:36.800Z,-8.40
2018-03-03T00:31:05.063Z,-8.70
2018-03-03T00:33:33.319Z,-8.60
2018-03-03T00:36:02.351Z,-8.60
2018-03-03T00:38:30.607Z,-8.70
2018-03-03T00:40:58.876Z,-8.80
2018-03-03T00:43:27.127Z,-8.60
2018-03-03T00:45:56.244Z,-8.20
2018-03-03T00:48:25.271Z,-8.50
2018-03-03T00:50:53.531Z,-8.50
2018-03-03T00:53:22.568Z,-8.40
2018-03-03T00:55:50.827Z,-8.20
2018-03-03T00:58:19.853Z,-8.60
2018-03-03T01:00:48.123Z,-8.40
2018-03-03T01:03:17.148Z,-8.60
2018-03-03T01:05:45.418Z,-8.60
2018-03-03T01:08:14.447Z,-8.90
2018-03-03T01:10:42.711Z,-9.00
2018-03-03T01:13:11.735Z,-9.70
2018-03-03T01:15:40.007Z,-9.40
2018-03-03T01:18:09.028Z,-9.70
2018-03-03T01:20:37.302Z,-10.00
2018-03-03T01:23:06.327Z,-10.20
2018-03-03T01:25:34.595Z,-10.00
2018-03-03T01:28:03.624Z,-10.50
2018-03-03T01:30:32.012Z,-10.20
2018-03-03T01:33:00.271Z,-10.20
2018-03-03T01:35:29.317Z,-10.50
2018-03-03T01:37:57.579Z,-10.60
2018-03-03T01:40:26.616Z,-10.80
2018-03-03T01:42:54.880Z,-11.20
2018-03-03T01:45:23.154Z,-10.80
2018-03-03T01:47:52.178Z,-11.20
2018-03-03T01:50:20.457Z,-11.30
2018-03-03T01:52:49.490Z,-11.30
2018-03-03T01:55:17.762Z,-11.60
2018-03-03T01:57:46.031Z,-11.70
2018-03-03T02:00:15.072Z,-11.80
2018-03-03T02:02:43.334Z,-12.00
2018-03-03T02:05:12.375Z,-11.80
2018-03-03T02:07:40.631Z,-12.20
2018-03-03T02:10:08.903Z,-11.80
2018-03-03T02:12:37.927Z,-11.80
2018-03-03T02:15:06.203Z,-11.90
2018-03-03T02:17:35.236Z,-11.50
2018-03-03T02:20:03.499Z,-11.80
2018-03-03T02:22:32.527Z,-11.80
2018-03-03T02:25:00.804Z,-11.90
2018-03-03T02:27:29.068Z,-11.80
2018-03-03T02:29:58.107Z,-11.80
2018-03-03T02:32:26.372Z,-12.00
2018-03-03T02:34:55.415Z,-11.50
2018-03-03T02:37:23.676Z,-11.80
2018-03-03T02:39:51.959Z,-11.70
2018-03-03T02:42:20.992Z,-11.50
2018-03-03T02:44:49.276Z,-11.80
2018-03-03T02:47:17.539Z,-11.60
2018-03-03T02:49:46.572Z,-12.00
2018-03-03T02:52:14.844Z,-12.10
2018-03-03T02:54:43.116Z,-12.10
2018-03-03T02:57:12.143Z,-12.20
2018-03-03T02:59:40.414Z,-12.10
2018-03-03T03:02:09.439Z,-12.00
2018-03-03T03:04:37.711Z,-12.20
2018-03-03T03:07:06.741Z,-11.80
2018-03-03T03:09:35.776Z,-11.60
2018-03-03T03:12:04.042Z,-11.70
2018-03-03T03:14:32.312Z,-11.40
2018-03-03T03:17:00.583Z,-11.70
2018-03-03T03:19:29.611Z,-11.40
2018-03-03T03:21:57.882Z,-11.30
2018-03-03T03:24:26.915Z,-11.20
2018-03-03T03:26:55.188Z,-11.20
2018-03-03T03:29:23.455Z,-11.20
2018-03-03T03:31:52.495Z,-10.80
2018-03-03T03:34:20.787Z,-10.50
2018-03-03T03:36:49.058Z,-10.50
2018-03-03T03:39:17.322Z,-10.50
2018-03-03T03:41:46.358Z,-10.30
2018-03-03T03:44:14.626Z,-10.30
2018-03-03T03:46:43.922Z,-9.60
2018-03-03T03:49:12.179Z,-9.70
2018-03-03T03:51:40.463Z,-9.60
2018-03-03T03:54:08.719Z,-9.40
2018-03-03T03:56:36.983Z,-9.50
2018-03-03T03:59:06.008Z,-9.00
2018-03-03T04:01:34.279Z,-9.10
2018-03-03T04:04:03.301Z,-9.20
2018-03-03T04:06:31.568Z,-9.20
2018-03-03T04:09:00.595Z,-9.10
2018-03-03T04:11:28.855Z,-9.10
2018-03-03T04:13:57.122Z,-8.50
2018-03-03T04:16:25.387Z,-8.50
2018-03-03T04:18:53.650Z,-8.50
2018-03-03T04:21:21.924Z,-8.40
2018-03-03T04:23:50.951Z,-8.10
2018-03-03T04:26:19.224Z,-8.20
2018-03-03T04:28:48.247Z,-8.10
2018-03-03T04:31:16.559Z,-8.20
2018-03-03T04:33:44.814Z,-8.00
2018-03-03T04:36:13.087Z,-8.10
2018-03-03T04:38:42.111Z,-8.30
2018-03-03T04:41:10.378Z,-8.30
2018-03-03T04:43:39.403Z,-8.40
2018-03-03T04:46:07.667Z,-8.30
2018-03-03T04:48:36.698Z,-8.80
2018-03-03T04:51:04.955Z,-8.80
2018-03-03T04:53:33.975Z,-9.00
2018-03-03T04:56:03.002Z,-8.80
2018-03-03T04:58:31.259Z,-8.60
2018-03-03T05:01:01.732Z,-8.70
2018-03-03T05:03:34.412Z,-8.70
2018-03-03T05:09:15.355Z,-8.50
2018-03-03T05:11:43.620Z,-8.60
2018-03-03T05:14:15.943Z,-8.50
2018-03-03T05:20:03.191Z,-8.50
2018-03-03T05:22:36.788Z,-8.40
2018-03-03T05:25:10.572Z,-8.10
2018-03-03T05:27:44.371Z,-8.30
2018-03-03T05:30:18.154Z,-8.20
2018-03-03T05:32:47.561Z,-8.10
2018-03-03T05:35:18.786Z,-8.00
2018-03-03T05:37:52.411Z,-7.80
2018-03-03T05:40:26.863Z,-8.10
2018-03-03T05:43:00.538Z,-8.20
2018-03-03T05:45:30.076Z,-7.90
2018-03-03T05:48:04.575Z,-8.00
2018-03-03T05:50:32.836Z,-7.80
2018-03-03T05:53:03.895Z,-8.00
2018-03-03T05:58:45.490Z,-7.70
2018-03-03T06:01:19.771Z,-7.90
2018-03-03T06:06:55.155Z,-7.50
2018-03-03T06:09:24.211Z,-7.80
2018-03-03T06:11:52.466Z,-7.80
2018-03-03T06:14:20.739Z,-8.00
2018-03-03T06:16:49.001Z,-7.80
2018-03-03T06:19:17.267Z,-7.80
2018-03-03T06:21:46.293Z,-7.60
2018-03-03T06:24:14.848Z,-7.70
2018-03-03T06:26:43.102Z,-7.30
2018-03-03T06:29:11.372Z,-7.60
2018-03-03T06:31:39.636Z,-7.20
2018-03-03T06:34:08.667Z,-7.10
2018-03-03T06:36:36.930Z,-7.10
2018-03-03T06:39:05.968Z,-7.30
2018-03-03T06:41:34.224Z,-7.00
2018-03-03T06:44:03.268Z,-7.10
2018-03-03T06:46:31.527Z,-7.00
2018-03-03T06:48:59.809Z,-7.30
2018-03-03T06:51:28.831Z,-6.80
2018-03-03T06:53:57.091Z,-6.80
2018-03-03T06:56:26.135Z,-6.70
2018-03-03T06:58:54.409Z,-6.70
2018-03-03T07:01:22.667Z,-6.80
2018-03-03T07:03:50.928Z,-6.70
2018-03-03T07:06:19.183Z,-6.70
2018-03-03T07:08:47.451Z,-6.20
2018-03-03T07:11:16.484Z,-6.30
2018-03-03T07:13:44.771Z,-6.20
2018-03-03T07:16:13.023Z,-6.00
2018-03-03T07:18:42.076Z,-5.90
2018-03-03T07:21:10.342Z,-5.90
2018-03-03T07:23:38.611Z,-5.90
2018-03-03T07:26:07.647Z,-5.70
2018-03-03T07:28:35.915Z,-5.70
2018-03-03T07:31:04.171Z,-5.80
2018-03-03T07:33:32.444Z,-5.70
2018-03-03T07:36:00.703Z,-5.70
2018-03-03T07:38:28.973Z,-5.40
2018-03-03T07:40:57.227Z,-5.50
2018-03-03T07:43:25.513Z,-5.20
2018-03-03T07:45:53.769Z,-5.40
2018-03-03T07:48:22.035Z,-5.30
2018-03-03T07:50:50.334Z,-5.10
2018-03-03T07:53:19.347Z,-5.00
2018-03-03T07:55:47.608Z,-5.30
2018-03-03T08:01:29.963Z,-5.00
2018-03-03T08:03:58.232Z,-4.60
2018-03-03T08:06:27.251Z,-4.90
2018-03-03T08:08:55.527Z,-4.80
2018-03-03T08:11:24.554Z,-4.80
2018-03-03T08:13:52.816Z,-4.50
2018-03-03T08:16:21.838Z,-4.50
2018-03-03T08:18:50.111Z,-4.50
2018-03-03T08:21:19.402Z,-4.40
2018-03-03T08:23:47.671Z,-4.40
2018-03-03T08:26:15.940Z,-4.40
2018-03-03T08:28:44.204Z,-4.40
2018-03-03T08:31:12.459Z,-4.40
2018-03-03T08:33:40.736Z,-4.30
2018-03-03T08:36:08.987Z,-4.40
2018-03-03T08:38:37.255Z,-3.80
2018-03-03T08:41:05.515Z,-4.10
2018-03-03T08:43:33.784Z,-4.20
2018-03-03T08:46:02.380Z,-4.10
2018-03-03T08:48:30.651Z,-3.80
2018-03-03T08:50:58.914Z,-3.90
2018-03-03T08:53:27.175Z,-3.40
2018-03-03T08:55:56.197Z,-3.40
2018-03-03T08:58:24.459Z,-3.40
2018-03-03T09:00:53.479Z,-3.40
2018-03-03T09:03:22.507Z,-3.20
2018-03-03T09:05:50.771Z,-2.80
2018-03-03T09:08:19.787Z,-3.00
2018-03-03T09:10:48.056Z,-3.20
2018-03-03T09:13:17.076Z,-3.20
2018-03-03T09:15:46.103Z,-3.20
2018-03-03T09:18:14.355Z,-3.00
2018-03-03T09:20:42.627Z,-2.80
2018-03-03T09:23:10.886Z,-3.30
2018-03-03T09:25:39.147Z,-3.00
2018-03-03T09:28:07.402Z,-2.70
2018-03-03T09:30:35.666Z,-2.40
2018-03-03T09:33:03.921Z,-2.70
2018-03-03T09:35:32.184Z,-2.90
2018-03-03T09:38:01.203Z,-3.20
2018-03-03T09:40:29.467Z,-3.20
2018-03-03T09:42:58.488Z,-3.00
2018-03-03T09:45:26.753Z,-3.10
2018-03-03T09:47:55.007Z,-3.00
2018-03-03T09:50:23.279Z,-3.00
2018-03-03T09:52:51.528Z,-3.10
2018-03-03T09:55:20.563Z,-3.10
2018-03-03T09:57:48.816Z,-3.40
2018-03-03T10:00:17.846Z,-3.40
2018-03-03T10:02:46.863Z,-3.20
2018-03-03T10:05:15.891Z,-3.30
2018-03-03T10:07:44.147Z,-3.50
2018-03-03T10:10:12.411Z,-3.20
2018-03-03T10:12:41.436Z,-3.10
2018-03-03T10:15:09.703Z,-3.00
2018-03-03T10:17:38.732Z,-3.40
2018-03-03T10:20:06.998Z,-3.00
2018-03-03T10:22:36.020Z,-3.20
2018-03-03T10:25:04.279Z,-3.00
2018-03-03T10:27:33.311Z,-3.10
2018-03-03T10:30:01.583Z,-2.90
2018-03-03T10:32:30.599Z,-2.30
2018-03-03T10:34:59.632Z,-2.40
2018-03-03T10:37:27.912Z,-2.70
2018-03-03T10:39:56.175Z,-2.50
2018-03-03T10:42:25.200Z,-1.80
2018-03-03T10:44:53.466Z,-2.20
2018-03-03T10:47:22.492Z,-1.70
2018-03-03T10:49:50.759Z,-1.60
2018-03-03T10:52:19.783Z,-1.70
2018-03-03T10:54:48.055Z,-1.90
2018-03-03T10:57:17.099Z,-1.40
2018-03-03T10:59:45.396Z,-1.40
2018-03-03T11:02:13.686Z,-1.40
2018-03-03T11:04:41.955Z,-1.40
2018-03-03T11:07:10.215Z,-1.20
2018-03-03T11:09:38.492Z,-0.90
2018-03-03T11:12:07.527Z,-0.60
2018-03-03T11:14:35.795Z,-0.40
2018-03-03T11:17:04.885Z,-0.50
2018-03-03T11:19:33.099Z,-0.30
2018-03-03T11:22:02.119Z,-0.20
2018-03-03T11:24:30.383Z,-0.30
2018-03-03T11:26:59.419Z,-0.80
2018-03-03T11:29:27.684Z,-0.60
2018-03-03T11:31:56.712Z,-0.90
2018-03-03T11:34:24.995Z,-0.60
2018-03-03T11:36:53.254Z,-0.70
2018-03-03T11:39:22.449Z,-0.70
2018-03-03T11:41:50.790Z,-0.70
2018-03-03T11:44:19.031Z,-0.80
2018-03-03T11:46:47.303Z,-0.50
2018-03-03T11:49:15.564Z,-0.30
2018-03-03T11:51:43.834Z,-0.20
2018-03-03T11:54:12.087Z,-0.60
2018-03-03T11:56:41.123Z,-0.90
2018-03-03T11:59:09.391Z,-0.60
2018-03-03T12:01:38.432Z,-0.90
2018-03-03T12:04:06.698Z,-0.50
2018-03-03T12:06:34.976Z,-1.00
2018-03-03T12:09:04.003Z,-0.60
2018-03-03T12:11:32.276Z,-0.50
2018-03-03T12:14:00.544Z,-0.60
2018-03-03T12:16:28.815Z,-0.50
2018-03-03T12:18:57.085Z,-0.80
2018-03-03T12:21:25.351Z,-0.30
2018-03-03T12:23:53.618Z,-0.50
2018-03-03T12:26:22.664Z,-0.30
2018-03-03T12:28:50.933Z,-0.50
2018-03-03T12:31:19.210Z,-0.30
2018-03-03T12:33:47.467Z,-0.60
2018-03-03T12:36:15.731Z,-0.60
2018-03-03T12:38:44.000Z,-0.80
2018-03-03T12:41:12.267Z,-1.00
2018-03-03T12:43:40.519Z,-1.10
2018-03-03T12:46:08.784Z,-1.00
2018-03-03T12:48:37.056Z,-1.20
2018-03-03T12:51:05.318Z,-1.10
2018-03-03T12:53:33.580Z,-0.60
2018-03-03T12:56:01.844Z,-1.00
2018-03-03T12:58:30.130Z,-1.00
2018-03-03T13:00:58.379Z,-0.90
2018-03-03T13:03:26.643Z,-1.00
2018-03-03T13:05:55.679Z,-0.80
2018-03-03T13:08:24.708Z,-0.70
2018-03-03T13:10:52.975Z,-0.30
2018-03-03T13:13:21.243Z,-0.70
2018-03-03T13:15:50.275Z,-0.80
2018-03-03T13:18:18.539Z,-0.80
2018-03-03T13:20:46.811Z,-0.60
2018-03-03T13:23:15.836Z,-0.60
2018-03-03T13:25:44.871Z,-0.80
2018-03-03T13:28:13.130Z,-0.80
2018-03-03T13:30:41.407Z,-1.10
2018-03-03T13:33:09.675Z,-1.10
2018-03-03T13:35:37.939Z,-1.20
2018-03-03T13:38:06.199Z,-1.10
2018-03-03T13:40:34.474Z,-1.00
2018-03-03T13:43:02.731Z,-1.10
2018-03-03T13:45:32.563Z,-1.10
2018-03-03T13:48:00.823Z,-1.00
2018-03-03T13:50:29.103Z,-1.00
2018-03-03T13:52:57.376Z,-0.90
2018-03-03T13:55:25.649Z,-1.10
2018-03-03T13:57:53.910Z,-1.20
2018-03-03T14:00:22.947Z,-1.10
2018-03-03T14:02:51.755Z,-1.30
2018-03-03T14:05:20.027Z,-1.20
2018-03-03T14:07:48.286Z,-1.40
2018-03-03T14:10:17.316Z,-1.20
2018-03-03T14:12:45.576Z,-1.00
2018-03-03T14:15:14.599Z,-1.40
2018-03-03T14:17:42.874Z,-1.20
2018-03-03T14:20:11.912Z,-1.20
2018-03-03T14:22:40.183Z,-1.30
2018-03-03T14:25:08.447Z,-1.20
2018-03-03T14:27:36.716Z,-1.40
2018-03-03T14:30:05.071Z,-1.40
2018-03-03T14:32:33.344Z,-1.30
2018-03-03T14:35:01.607Z,-1.20
2018-03-03T14:37:30.640Z,-1.30
2018-03-03T14:39:58.903Z,-1.20
2018-03-03T14:42:27.940Z,-1.60
2018-03-03T14:44:56.207Z,-1.50
2018-03-03T14:47:25.244Z,-1.30
2018-03-03T14:49:53.503Z,-1.20
2018-03-03T14:52:22.540Z,-1.40
2018-03-03T14:54:50.795Z,-1.40
2018-03-03T14:57:19.844Z,-2.10
2018-03-03T14:59:48.099Z,-1.90
2018-03-03T15:02:16.368Z,-2.20
2018-03-03T15:04:45.390Z,-2.50
2018-03-03T15:07:14.427Z,-2.50
2018-03-03T15:09:42.680Z,-2.50
2018-03-03T15:12:11.711Z,-2.70
2018-03-03T15:14:40.002Z,-2.90
2018-03-03T15:17:08.232Z,-2.70
2018-03-03T15:19:36.495Z,-3.10
2018-03-03T15:22:04.759Z,-3.20
2018-03-03T15:24:33.003Z,-2.80
2018-03-03T15:27:01.273Z,-3.10
2018-03-03T15:29:29.531Z,-3.40
2018-03-03T15:31:57.791Z,-3.40
2018-03-03T15:34:26.807Z,-3.30
2018-03-03T15:36:55.067Z,-3.40
2018-03-03T15:39:23.411Z,-3.30
2018-03-03T15:41:51.583Z,-3.30
2018-03-03T15:44:19.843Z,-3.60
2018-03-03T15:46:48.875Z,-3.50
2018-03-03T15:49:17.127Z,-3.80
2018-03-03T15:51:45.391Z,-3.80
2018-03-03T15:54:13.646Z,-3.90
2018-03-03T15:56:41.911Z,-3.30
2018-03-03T15:59:10.923Z,-3.40
2018-03-03T16:01:39.193Z,-3.80
2018-03-03T16:04:07.436Z,-3.80
2018-03-03T16:06:35.700Z,-3.60
2018-03-03T16:09:03.952Z,-3.90
2018-03-03T16:11:32.213Z,-3.80
2018-03-03T16:14:00.460Z,-3.50
2018-03-03T16:16:28.723Z,-3.70
2018-03-03T16:18:57.007Z,-3.70
2018-03-03T16:21:25.272Z,-3.90
2018-03-03T16:23:54.295Z,-3.80
2018-03-03T16:26:22.551Z,-4.00
2018-03-03T16:28:50.808Z,-3.80
2018-03-03T16:31:19.072Z,-3.80
2018-03-03T16:33:47.343Z,-3.80
2018-03-03T16:36:15.599Z,-4.00
2018-03-03T16:38:43.848Z,-4.00
2018-03-03T16:41:12.871Z,-3.90
2018-03-03T16:43:41.127Z,-4.00
2018-03-03T16:46:09.386Z,-4.00
2018-03-03T16:48:37.652Z,-3.90
2018-03-03T16:51:05.903Z,-4.20
2018-03-03T16:53:35.756Z,-4.00
2018-03-03T16:56:04.050Z,-4.30
2018-03-03T16:58:32.267Z,-4.50
2018-03-03T17:01:00.516Z,-4.20
2018-03-03T17:03:28.800Z,-4.70
2018-03-03T17:05:57.059Z,-4.60
2018-03-03T17:08:25.342Z,-4.90
2018-03-03T17:10:53.581Z,-4.80
2018-03-03T17:13:21.851Z,-4.90
2018-03-03T17:15:50.102Z,-4.80
2018-03-03T17:18:18.371Z,-4.90
2018-03-03T17:20:48.152Z,-4.80
2018-03-03T17:23:16.410Z,-5.00
2018-03-03T17:25:44.659Z,-4.80
2018-03-03T17:28:12.920Z,-4.70
2018-03-03T17:30:41.172Z,-4.80
2018-03-03T17:33:09.493Z,-5.00
2018-03-03T17:35:38.506Z,-4.80
2018-03-03T17:38:06.763Z,-4.90
2018-03-03T17:40:35.020Z,-4.40
2018-03-03T17:43:04.047Z,-4.50
2018-03-03T17:45:32.304Z,-4.50
2018-03-03T17:48:00.576Z,-4.50
2018-03-03T17:50:28.824Z,-4.50
2018-03-03T17:52:57.851Z,-4.90
2018-03-03T17:55:26.111Z,-4.70
2018-03-03T17:57:55.135Z,-4.90
2018-03-03T18:00:23.391Z,-4.90
2018-03-03T18:02:51.652Z,-5.00
2018-03-03T18:05:19.908Z,-4.90
2018-03-03T18:07:48.167Z,-4.80
2018-03-03T18:10:16.419Z,-4.70
2018-03-03T18:12:44.686Z,-5.00
2018-03-03T18:15:12.944Z,-4.80
2018-03-03T18:17:42.879Z,-4.80
2018-03-03T18:20:11.908Z,-4.80
2018-03-03T18:22:40.168Z,-4.80
2018-03-03T18:25:09.188Z,-4.90
2018-03-03T18:27:37.456Z,-4.60
2018-03-03T18:30:05.711Z,-4.80
2018-03-03T18:32:33.976Z,-4.80
2018-03-03T18:35:02.237Z,-4.60
2018-03-03T18:37:31.259Z,-4.60
2018-03-03T18:39:59.519Z,-4.80
2018-03-03T18:42:28.551Z,-4.80
2018-03-03T18:44:56.808Z,-4.60
2018-03-03T18:47:25.842Z,-4.60
2018-03-03T18:49:54.099Z,-4.60
2018-03-03T18:52:23.130Z,-4.60
2018-03-03T18:54:51.387Z,-4.70
2018-03-03T18:57:19.654Z,-4.60
2018-03-03T18:59:47.911Z,-4.50
2018-03-03T19:02:16.183Z,-4.60
2018-03-03T19:04:44.439Z,-4.70
2018-03-03T19:07:12.704Z,-4.60
2018-03-03T19:09:40.964Z,-4.70
2018-03-03T19:12:09.239Z,-4.80
2018-03-03T19:14:37.503Z,-4.80
2018-03-03T19:17:06.535Z,-4.60
2018-03-03T19:19:34.791Z,-4.60
2018-03-03T19:22:03.083Z,-4.70
2018-03-03T19:24:32.107Z,-4.70
2018-03-03T19:27:00.371Z,-4.70
2018-03-03T19:29:28.640Z,-4.80
2018-03-03T19:31:56.899Z,-4.40
2018-03-03T19:34:25.170Z,-4.60
2018-03-03T19:36:53.424Z,-4.20
2018-03-03T19:39:21.703Z,-4.80
2018-03-03T19:41:49.948Z,-4.40
2018-03-03T19:44:18.944Z,-4.60
2018-03-03T19:46:47.296Z,-4.80
2018-03-03T19:49:15.568Z,-4.50
2018-03-03T19:51:44.816Z,-4.20
2018-03-03T19:54:14.747Z,-4.50
2018-03-03T19:56:43.007Z,-4.50
2018-03-03T19:59:11.272Z,-4.50
2018-03-03T20:01:39.524Z,-4.50
2018-03-03T20:04:07.787Z,-4.40
2018-03-03T20:06:36.818Z,-4.60
2018-03-03T20:09:05.108Z,-4.80
2018-03-03T20:11:33.367Z,-4.70
2018-03-03T20:14:02.401Z,-4.40
2018-03-03T20:16:30.652Z,-4.80
2018-03-03T20:18:58.916Z,-4.50
2018-03-03T20:21:27.167Z,-4.70
2018-03-03T20:23:55.431Z,-4.80
2018-03-03T20:26:24.453Z,-4.80
2018-03-03T20:28:52.722Z,-4.50
2018-03-03T20:31:21.746Z,-4.80
2018-03-03T20:33:50.015Z,-4.80
2018-03-03T20:36:19.042Z,-4.70
2018-03-03T20:38:47.303Z,-4.70
2018-03-03T20:41:16.326Z,-4.40
2018-03-03T20:43:46.143Z,-4.60
2018-03-03T20:46:15.178Z,-4.60
2018-03-03T20:48:43.440Z,-4.80
2018-03-03T20:51:12.464Z,-4.50
2018-03-03T20:53:40.723Z,-4.50
2018-03-03T20:56:09.748Z,-4.50
2018-03-03T20:58:38.011Z,-4.50
2018-03-03T21:01:06.268Z,-4.60
2018-03-03T21:03:34.528Z,-4.70
2018-03-03T21:06:02.799Z,-4.40
2018-03-03T21:08:31.067Z,-4.70
2018-03-03T21:11:00.099Z,-4.40
2018-03-03T21:13:28.370Z,-4.80
2018-03-03T21:15:57.396Z,-4.70
2018-03-03T21:18:25.655Z,-4.80
2018-03-03T21:20:54.680Z,-4.60
2018-03-03T21:23:22.943Z,-4.30
2018-03-03T21:25:51.203Z,-4.70
2018-03-03T21:28:19.463Z,-4.50
2018-03-03T21:30:47.727Z,-4.70
2018-03-03T21:33:16.767Z,-4.50
2018-03-03T21:35:45.023Z,-4.70
2018-03-03T21:38:14.051Z,-4.60
2018-03-03T21:40:42.307Z,-4.60
2018-03-03T21:43:11.335Z,-4.80
2018-03-03T21:45:40.458Z,-4.90
2018-03-03T21:48:08.724Z,-4.60
2018-03-03T21:50:36.979Z,-4.80
2018-03-03T21:53:05.243Z,-4.90
2018-03-03T21:55:33.509Z,-4.70
2018-03-03T21:58:01.808Z,-4.90
2018-03-03T22:00:30.059Z,-4.60
2018-03-03T22:02:59.087Z,-4.80
2018-03-03T22:05:27.347Z,-4.70
2018-03-03T22:07:56.372Z,-4.70
2018-03-03T22:10:24.635Z,-4.60
2018-03-03T22:12:53.655Z,-4.60
2018-03-03T22:15:21.919Z,-4.50
2018-03-03T22:17:50.176Z,-4.60
2018-03-03T22:20:18.448Z,-4.40
2018-03-03T22:22:46.696Z,-4.60
2018-03-03T22:25:15.729Z,-4.80
2018-03-03T22:27:43.983Z,-4.70
2018-03-03T22:30:12.247Z,-5.20
2018-03-03T22:32:40.517Z,-5.00
2018-03-03T22:35:08.785Z,-4.90
2018-03-03T22:37:37.039Z,-5.00
2018-03-03T22:40:06.072Z,-5.00
2018-03-03T22:42:34.326Z,-5.00
2018-03-03T22:45:03.360Z,-4.80
2018-03-03T22:47:31.627Z,-5.00
2018-03-03T22:50:00.659Z,-4.80
2018-03-03T22:52:28.919Z,-5.00
2018-03-03T22:54:57.179Z,-4.60
2018-03-03T22:57:25.432Z,-4.70
2018-03-03T22:59:53.701Z,-4.70
2018-03-03T23:02:22.718Z,-4.40
2018-03-03T23:04:50.988Z,-4.50
2018-03-03T23:07:20.012Z,-4.50
2018-03-03T23:09:48.275Z,-4.70
2018-03-03T23:12:17.303Z,-4.30
2018-03-03T23:14:45.571Z,-4.30
2018-03-03T23:17:14.592Z,-4.00
2018-03-03T23:19:42.851Z,-4.00
2018-03-03T23:22:11.107Z,-4.00
2018-03-03T23:24:39.394Z,-4.00
2018-03-03T23:27:07.646Z,-3.80
2018-03-03T23:29:35.911Z,-3.70
2018-03-03T23:32:04.932Z,-3.50
2018-03-03T23:34:33.199Z,-3.40
2018-03-03T23:37:01.468Z,-3.40
2018-03-03T23:39:29.720Z,-3.30
2018-03-03T23:41:57.989Z,-3.60
2018-03-03T23:44:26.247Z,-3.30
2018-03-03T23:46:54.523Z,-3.30
2018-03-03T23:49:22.777Z,-3.60
2018-03-03T23:51:51.040Z,-3.10
2018-03-03T23:54:19.340Z,-3.20
2018-03-03T23:56:48.455Z,-3.00
2018-03-03T23:59:16.710Z,-3.30
